sensor_id;sensor_type;location;lat;lon;timestamp;P1;durP1;ratioP1;P2;durP2;ratioP2
44358;SDS011;30077;52.474;13.326;2023-04-25T00:01:14;6.18;;;3.33;;
44358;SDS011;30077;52.474;13.326;2023-04-25T00:06:15;7.32;;;3.20;;
44358;SDS011;30077;52.474;13.326;2023-04-25T00:11:17;6.20;;;2.70;;
44358;SDS011;30077;52.474;13.326;2023-04-25T00:16:18;7.63;;;3.00;;
44358;SDS011;30077;52.474;13.326;2023-04-25T00:21:19;7.03;;;2.92;;
44358;SDS011;30077;52.474;13.326;2023-04-25T00:26:20;9.43;;;2.75;;
44358;SDS011;30077;52.474;13.326;2023-04-25T00:31:20;4.45;;;2.65;;
44358;SDS011;30077;52.474;13.326;2023-04-25T00:36:21;5.90;;;3.28;;
44358;SDS011;30077;52.474;13.326;2023-04-25T00:41:22;6.05;;;3.28;;
44358;SDS011;30077;52.474;13.326;2023-04-25T00:46:25;7.68;;;3.30;;
44358;SDS011;30077;52.474;13.326;2023-04-25T00:51:26;6.55;;;3.40;;
44358;SDS011;30077;52.474;13.326;2023-04-25T00:56:27;7.88;;;3.65;;
44358;SDS011;30077;52.474;13.326;2023-04-25T01:01:27;8.95;;;4.05;;
44358;SDS011;30077;52.474;13.326;2023-04-25T01:06:28;7.65;;;3.67;;
44358;SDS011;30077;52.474;13.326;2023-04-25T01:11:30;11.07;;;4.40;;
44358;SDS011;30077;52.474;13.326;2023-04-25T01:16:31;9.43;;;3.92;;
44358;SDS011;30077;52.474;13.326;2023-04-25T01:21:33;13.05;;;4.00;;
44358;SDS011;30077;52.474;13.326;2023-04-25T01:26:33;10.43;;;4.57;;
44358;SDS011;30077;52.474;13.326;2023-04-25T01:31:36;7.35;;;4.07;;
44358;SDS011;30077;52.474;13.326;2023-04-25T01:36:37;9.80;;;3.88;;
44358;SDS011;30077;52.474;13.326;2023-04-25T01:41:38;11.95;;;4.47;;
44358;SDS011;30077;52.474;13.326;2023-04-25T01:46:39;11.45;;;4.22;;
44358;SDS011;30077;52.474;13.326;2023-04-25T01:51:40;13.02;;;4.70;;
44358;SDS011;30077;52.474;13.326;2023-04-25T01:56:41;9.40;;;4.50;;
44358;SDS011;30077;52.474;13.326;2023-04-25T02:01:41;11.02;;;4.18;;
44358;SDS011;30077;52.474;13.326;2023-04-25T02:06:42;10.20;;;4.68;;
44358;SDS011;30077;52.474;13.326;2023-04-25T02:11:43;12.57;;;4.72;;
44358;SDS011;30077;52.474;13.326;2023-04-25T02:16:44;13.38;;;5.05;;
44358;SDS011;30077;52.474;13.326;2023-04-25T02:21:46;10.48;;;5.05;;
44358;SDS011;30077;52.474;13.326;2023-04-25T02:26:46;8.98;;;4.30;;
44358;SDS011;30077;52.474;13.326;2023-04-25T02:31:49;14.93;;;5.80;;
44358;SDS011;30077;52.474;13.326;2023-04-25T02:36:50;10.48;;;5.20;;
44358;SDS011;30077;52.474;13.326;2023-04-25T02:41:51;9.82;;;5.07;;
44358;SDS011;30077;52.474;13.326;2023-04-25T02:46:52;13.98;;;5.45;;
44358;SDS011;30077;52.474;13.326;2023-04-25T02:51:52;11.88;;;5.40;;
44358;SDS011;30077;52.474;13.326;2023-04-25T02:56:53;11.90;;;5.57;;
44358;SDS011;30077;52.474;13.326;2023-04-25T03:01:54;8.68;;;5.50;;
44358;SDS011;30077;52.474;13.326;2023-04-25T03:06:54;13.07;;;5.28;;
44358;SDS011;30077;52.474;13.326;2023-04-25T03:11:55;16.95;;;5.90;;
44358;SDS011;30077;52.474;13.326;2023-04-25T03:16:56;13.45;;;5.80;;
44358;SDS011;30077;52.474;13.326;2023-04-25T03:21:56;7.80;;;4.82;;
44358;SDS011;30077;52.474;13.326;2023-04-25T03:26:57;11.57;;;5.18;;
44358;SDS011;30077;52.474;13.326;2023-04-25T03:31:58;11.50;;;6.15;;
44358;SDS011;30077;52.474;13.326;2023-04-25T03:36:58;17.85;;;6.28;;
44358;SDS011;30077;52.474;13.326;2023-04-25T03:41:59;14.50;;;6.03;;
44358;SDS011;30077;52.474;13.326;2023-04-25T03:47:00;13.10;;;6.03;;
44358;SDS011;30077;52.474;13.326;2023-04-25T03:52:01;9.88;;;5.72;;
44358;SDS011;30077;52.474;13.326;2023-04-25T03:57:03;11.68;;;5.45;;
44358;SDS011;30077;52.474;13.326;2023-04-25T04:02:03;11.85;;;6.47;;
44358;SDS011;30077;52.474;13.326;2023-04-25T04:07:04;14.38;;;5.40;;
44358;SDS011;30077;52.474;13.326;2023-04-25T04:12:05;10.45;;;5.38;;
44358;SDS011;30077;52.474;13.326;2023-04-25T04:17:06;13.65;;;5.47;;
44358;SDS011;30077;52.474;13.326;2023-04-25T04:22:07;10.38;;;4.97;;
44358;SDS011;30077;52.474;13.326;2023-04-25T04:27:07;13.25;;;5.25;;
44358;SDS011;30077;52.474;13.326;2023-04-25T04:32:08;9.68;;;5.75;;
44358;SDS011;30077;52.474;13.326;2023-04-25T04:37:09;14.35;;;5.88;;
44358;SDS011;30077;52.474;13.326;2023-04-25T04:42:10;10.52;;;5.68;;
44358;SDS011;30077;52.474;13.326;2023-04-25T04:47:11;8.80;;;4.95;;
44358;SDS011;30077;52.474;13.326;2023-04-25T04:52:13;12.50;;;5.47;;
44358;SDS011;30077;52.474;13.326;2023-04-25T04:57:14;12.57;;;5.97;;
44358;SDS011;30077;52.474;13.326;2023-04-25T05:02:16;11.65;;;5.45;;
44358;SDS011;30077;52.474;13.326;2023-04-25T05:07:17;12.82;;;6.10;;
44358;SDS011;30077;52.474;13.326;2023-04-25T05:12:18;11.20;;;5.47;;
44358;SDS011;30077;52.474;13.326;2023-04-25T05:17:19;16.05;;;6.00;;
44358;SDS011;30077;52.474;13.326;2023-04-25T05:22:20;15.68;;;5.95;;
44358;SDS011;30077;52.474;13.326;2023-04-25T05:27:20;14.45;;;6.35;;
44358;SDS011;30077;52.474;13.326;2023-04-25T05:32:21;11.40;;;6.13;;
44358;SDS011;30077;52.474;13.326;2023-04-25T05:37:22;11.60;;;5.82;;
44358;SDS011;30077;52.474;13.326;2023-04-25T05:42:22;11.77;;;5.93;;
44358;SDS011;30077;52.474;13.326;2023-04-25T05:52:26;18.63;;;6.18;;
44358;SDS011;30077;52.474;13.326;2023-04-25T05:57:27;11.95;;;5.88;;
44358;SDS011;30077;52.474;13.326;2023-04-25T06:02:27;15.70;;;7.47;;
44358;SDS011;30077;52.474;13.326;2023-04-25T06:07:28;16.25;;;6.80;;
44358;SDS011;30077;52.474;13.326;2023-04-25T06:12:32;15.25;;;6.70;;
44358;SDS011;30077;52.474;13.326;2023-04-25T06:17:33;23.58;;;9.52;;
44358;SDS011;30077;52.474;13.326;2023-04-25T06:22:35;23.70;;;8.03;;
44358;SDS011;30077;52.474;13.326;2023-04-25T06:27:35;15.30;;;6.78;;
44358;SDS011;30077;52.474;13.326;2023-04-25T06:32:36;12.57;;;6.65;;
44358;SDS011;30077;52.474;13.326;2023-04-25T06:37:37;20.05;;;8.00;;
44358;SDS011;30077;52.474;13.326;2023-04-25T06:42:37;11.02;;;6.22;;
44358;SDS011;30077;52.474;13.326;2023-04-25T06:47:38;15.88;;;6.53;;
44358;SDS011;30077;52.474;13.326;2023-04-25T06:52:39;11.23;;;6.20;;
44358;SDS011;30077;52.474;13.326;2023-04-25T06:57:39;13.43;;;6.25;;
44358;SDS011;30077;52.474;13.326;2023-04-25T07:02:40;14.93;;;6.90;;
44358;SDS011;30077;52.474;13.326;2023-04-25T07:07:43;17.65;;;6.43;;
44358;SDS011;30077;52.474;13.326;2023-04-25T07:12:43;12.35;;;6.38;;
44358;SDS011;30077;52.474;13.326;2023-04-25T07:17:44;10.88;;;6.18;;
44358;SDS011;30077;52.474;13.326;2023-04-25T07:22:45;12.13;;;5.93;;
44358;SDS011;30077;52.474;13.326;2023-04-25T07:27:45;13.55;;;5.90;;
44358;SDS011;30077;52.474;13.326;2023-04-25T07:32:46;12.00;;;6.28;;
44358;SDS011;30077;52.474;13.326;2023-04-25T07:37:47;16.90;;;6.47;;
44358;SDS011;30077;52.474;13.326;2023-04-25T07:42:48;14.32;;;5.88;;
44358;SDS011;30077;52.474;13.326;2023-04-25T07:47:48;13.90;;;5.20;;
44358;SDS011;30077;52.474;13.326;2023-04-25T07:52:49;13.93;;;6.65;;
44358;SDS011;30077;52.474;13.326;2023-04-25T07:57:50;17.00;;;5.75;;
44358;SDS011;30077;52.474;13.326;2023-04-25T08:02:51;16.85;;;5.90;;
44358;SDS011;30077;52.474;13.326;2023-04-25T08:07:52;19.45;;;5.95;;
44358;SDS011;30077;52.474;13.326;2023-04-25T08:12:53;15.85;;;5.78;;
44358;SDS011;30077;52.474;13.326;2023-04-25T08:17:54;20.98;;;5.40;;
44358;SDS011;30077;52.474;13.326;2023-04-25T08:22:54;26.40;;;5.82;;
44358;SDS011;30077;52.474;13.326;2023-04-25T08:27:55;26.10;;;6.40;;
44358;SDS011;30077;52.474;13.326;2023-04-25T08:32:57;22.38;;;5.57;;
44358;SDS011;30077;52.474;13.326;2023-04-25T08:37:57;24.05;;;4.63;;
44358;SDS011;30077;52.474;13.326;2023-04-25T08:42:58;14.55;;;4.60;;
44358;SDS011;30077;52.474;13.326;2023-04-25T08:48:00;22.37;;;4.63;;
44358;SDS011;30077;52.474;13.326;2023-04-25T08:53:02;15.20;;;5.00;;
44358;SDS011;30077;52.474;13.326;2023-04-25T08:58:04;21.77;;;4.57;;
44358;SDS011;30077;52.474;13.326;2023-04-25T09:03:07;23.13;;;4.50;;
44358;SDS011;30077;52.474;13.326;2023-04-25T09:08:08;14.38;;;4.97;;
44358;SDS011;30077;52.474;13.326;2023-04-25T09:13:10;15.52;;;4.60;;
44358;SDS011;30077;52.474;13.326;2023-04-25T09:18:21;19.17;;;4.20;;
44358;SDS011;30077;52.474;13.326;2023-04-25T09:23:26;20.02;;;4.15;;
44358;SDS011;30077;52.474;13.326;2023-04-25T09:28:27;17.58;;;4.88;;
44358;SDS011;30077;52.474;13.326;2023-04-25T09:33:28;15.52;;;5.70;;
44358;SDS011;30077;52.474;13.326;2023-04-25T09:38:31;17.02;;;4.07;;
44358;SDS011;30077;52.474;13.326;2023-04-25T09:43:41;25.13;;;8.32;;
44358;SDS011;30077;52.474;13.326;2023-04-25T09:48:50;18.08;;;3.97;;
44358;SDS011;30077;52.474;13.326;2023-04-25T09:53:51;18.88;;;4.65;;
44358;SDS011;30077;52.474;13.326;2023-04-25T09:58:51;15.32;;;3.88;;
44358;SDS011;30077;52.474;13.326;2023-04-25T10:03:54;18.40;;;4.05;;
44358;SDS011;30077;52.474;13.326;2023-04-25T10:13:58;13.55;;;3.80;;
44358;SDS011;30077;52.474;13.326;2023-04-25T10:19:00;15.87;;;3.97;;
44358;SDS011;30077;52.474;13.326;2023-04-25T10:24:02;11.23;;;3.85;;
44358;SDS011;30077;52.474;13.326;2023-04-25T10:29:04;10.85;;;4.15;;
44358;SDS011;30077;52.474;13.326;2023-04-25T10:34:05;12.20;;;3.40;;
44358;SDS011;30077;52.474;13.326;2023-04-25T10:39:06;14.13;;;3.70;;
44358;SDS011;30077;52.474;13.326;2023-04-25T10:44:08;15.32;;;4.15;;
44358;SDS011;30077;52.474;13.326;2023-04-25T10:49:08;12.80;;;3.65;;
44358;SDS011;30077;52.474;13.326;2023-04-25T10:54:10;16.08;;;3.55;;
44358;SDS011;30077;52.474;13.326;2023-04-25T10:59:13;13.40;;;3.67;;
44358;SDS011;30077;52.474;13.326;2023-04-25T11:04:19;12.73;;;3.85;;
44358;SDS011;30077;52.474;13.326;2023-04-25T11:09:23;12.77;;;3.63;;
44358;SDS011;30077;52.474;13.326;2023-04-25T11:14:25;11.98;;;3.08;;
44358;SDS011;30077;52.474;13.326;2023-04-25T11:19:27;16.00;;;4.07;;
44358;SDS011;30077;52.474;13.326;2023-04-25T11:24:29;11.07;;;3.05;;
44358;SDS011;30077;52.474;13.326;2023-04-25T11:29:34;12.63;;;3.22;;
44358;SDS011;30077;52.474;13.326;2023-04-25T11:34:35;13.02;;;2.85;;
44358;SDS011;30077;52.474;13.326;2023-04-25T11:39:36;9.55;;;2.65;;
44358;SDS011;30077;52.474;13.326;2023-04-25T11:44:37;13.57;;;3.20;;
44358;SDS011;30077;52.474;13.326;2023-04-25T11:49:39;8.82;;;2.95;;
44358;SDS011;30077;52.474;13.326;2023-04-25T11:54:40;8.55;;;2.55;;
44358;SDS011;30077;52.474;13.326;2023-04-25T11:59:41;10.93;;;2.97;;
44358;SDS011;30077;52.474;13.326;2023-04-25T12:04:41;8.32;;;2.85;;
44358;SDS011;30077;52.474;13.326;2023-04-25T12:09:42;5.22;;;2.80;;
44358;SDS011;30077;52.474;13.326;2023-04-25T12:14:45;12.43;;;2.60;;
44358;SDS011;30077;52.474;13.326;2023-04-25T12:19:48;9.80;;;3.10;;
44358;SDS011;30077;52.474;13.326;2023-04-25T12:24:49;16.00;;;3.22;;
44358;SDS011;30077;52.474;13.326;2023-04-25T12:29:54;8.80;;;2.40;;
44358;SDS011;30077;52.474;13.326;2023-04-25T12:34:56;13.40;;;3.17;;
44358;SDS011;30077;52.474;13.326;2023-04-25T12:39:57;9.77;;;2.50;;
44358;SDS011;30077;52.474;13.326;2023-04-25T12:44:57;13.82;;;3.20;;
44358;SDS011;30077;52.474;13.326;2023-04-25T12:49:58;13.40;;;3.08;;
44358;SDS011;30077;52.474;13.326;2023-04-25T12:54:59;12.30;;;3.42;;
44358;SDS011;30077;52.474;13.326;2023-04-25T12:59:59;9.20;;;2.42;;
44358;SDS011;30077;52.474;13.326;2023-04-25T13:05:00;6.57;;;2.33;;
44358;SDS011;30077;52.474;13.326;2023-04-25T13:10:01;10.73;;;2.92;;
44358;SDS011;30077;52.474;13.326;2023-04-25T13:15:03;8.53;;;2.63;;
44358;SDS011;30077;52.474;13.326;2023-04-25T13:20:04;7.63;;;2.40;;
44358;SDS011;30077;52.474;13.326;2023-04-25T13:25:08;5.13;;;2.28;;
44358;SDS011;30077;52.474;13.326;2023-04-25T13:30:09;8.20;;;2.35;;
44358;SDS011;30077;52.474;13.326;2023-04-25T13:35:12;6.38;;;2.67;;
44358;SDS011;30077;52.474;13.326;2023-04-25T13:40:13;8.68;;;2.67;;
44358;SDS011;30077;52.474;13.326;2023-04-25T13:45:14;8.88;;;2.55;;
44358;SDS011;30077;52.474;13.326;2023-04-25T13:50:15;18.70;;;3.38;;
44358;SDS011;30077;52.474;13.326;2023-04-25T13:55:16;9.77;;;2.83;;
44358;SDS011;30077;52.474;13.326;2023-04-25T14:00:16;9.43;;;3.25;;
44358;SDS011;30077;52.474;13.326;2023-04-25T14:05:17;7.72;;;2.47;;
44358;SDS011;30077;52.474;13.326;2023-04-25T14:10:18;8.55;;;2.67;;
44358;SDS011;30077;52.474;13.326;2023-04-25T14:15:19;11.80;;;3.15;;
44358;SDS011;30077;52.474;13.326;2023-04-25T14:20:20;6.70;;;2.13;;
44358;SDS011;30077;52.474;13.326;2023-04-25T14:25:21;5.07;;;2.17;;
44358;SDS011;30077;52.474;13.326;2023-04-25T14:30:22;7.72;;;2.15;;
44358;SDS011;30077;52.474;13.326;2023-04-25T14:35:23;5.40;;;2.55;;
44358;SDS011;30077;52.474;13.326;2023-04-25T14:40:23;6.38;;;2.10;;
44358;SDS011;30077;52.474;13.326;2023-04-25T14:45:25;5.77;;;2.13;;
44358;SDS011;30077;52.474;13.326;2023-04-25T14:50:26;9.60;;;1.95;;
44358;SDS011;30077;52.474;13.326;2023-04-25T14:55:27;10.32;;;2.47;;
44358;SDS011;30077;52.474;13.326;2023-04-25T15:00:28;11.38;;;2.65;;
44358;SDS011;30077;52.474;13.326;2023-04-25T15:05:30;14.07;;;2.50;;
44358;SDS011;30077;52.474;13.326;2023-04-25T15:10:31;8.15;;;2.33;;
44358;SDS011;30077;52.474;13.326;2023-04-25T15:15:32;6.57;;;1.85;;
44358;SDS011;30077;52.474;13.326;2023-04-25T15:20:33;10.73;;;2.38;;
44358;SDS011;30077;52.474;13.326;2023-04-25T15:25:34;6.18;;;2.17;;
44358;SDS011;30077;52.474;13.326;2023-04-25T15:30:35;9.88;;;1.92;;
44358;SDS011;30077;52.474;13.326;2023-04-25T15:35:36;5.47;;;2.20;;
44358;SDS011;30077;52.474;13.326;2023-04-25T15:40:37;8.23;;;1.60;;
44358;SDS011;30077;52.474;13.326;2023-04-25T15:45:38;5.82;;;1.70;;
44358;SDS011;30077;52.474;13.326;2023-04-25T15:50:39;7.15;;;1.90;;
44358;SDS011;30077;52.474;13.326;2023-04-25T15:55:40;4.95;;;1.75;;
44358;SDS011;30077;52.474;13.326;2023-04-25T16:00:41;7.55;;;1.85;;
44358;SDS011;30077;52.474;13.326;2023-04-25T16:05:42;5.45;;;1.80;;
44358;SDS011;30077;52.474;13.326;2023-04-25T16:10:42;8.00;;;1.88;;
44358;SDS011;30077;52.474;13.326;2023-04-25T16:15:43;5.15;;;1.50;;
44358;SDS011;30077;52.474;13.326;2023-04-25T16:20:44;4.55;;;1.52;;
44358;SDS011;30077;52.474;13.326;2023-04-25T16:25:45;7.03;;;1.30;;
44358;SDS011;30077;52.474;13.326;2023-04-25T16:30:45;4.55;;;1.30;;
44358;SDS011;30077;52.474;13.326;2023-04-25T16:35:46;3.65;;;1.50;;
44358;SDS011;30077;52.474;13.326;2023-04-25T16:40:49;8.15;;;1.77;;
44358;SDS011;30077;52.474;13.326;2023-04-25T16:45:49;10.80;;;1.83;;
44358;SDS011;30077;52.474;13.326;2023-04-25T16:50:50;5.07;;;1.90;;
44358;SDS011;30077;52.474;13.326;2023-04-25T16:55:51;3.63;;;1.30;;
44358;SDS011;30077;52.474;13.326;2023-04-25T17:00:53;7.20;;;1.80;;
44358;SDS011;30077;52.474;13.326;2023-04-25T17:05:54;14.80;;;6.13;;
44358;SDS011;30077;52.474;13.326;2023-04-25T17:10:56;3.97;;;1.80;;
44358;SDS011;30077;52.474;13.326;2023-04-25T17:15:57;9.13;;;2.33;;
44358;SDS011;30077;52.474;13.326;2023-04-25T17:20:58;3.75;;;1.40;;
44358;SDS011;30077;52.474;13.326;2023-04-25T17:25:59;4.78;;;1.63;;
44358;SDS011;30077;52.474;13.326;2023-04-25T17:31:00;5.50;;;2.20;;
44358;SDS011;30077;52.474;13.326;2023-04-25T17:36:00;5.30;;;1.77;;
44358;SDS011;30077;52.474;13.326;2023-04-25T17:41:03;4.70;;;1.75;;
44358;SDS011;30077;52.474;13.326;2023-04-25T17:46:04;8.25;;;1.90;;
44358;SDS011;30077;52.474;13.326;2023-04-25T17:51:06;3.33;;;1.30;;
44358;SDS011;30077;52.474;13.326;2023-04-25T17:56:07;6.70;;;1.77;;
44358;SDS011;30077;52.474;13.326;2023-04-25T18:01:08;3.13;;;1.67;;
44358;SDS011;30077;52.474;13.326;2023-04-25T18:06:10;11.38;;;4.90;;
44358;SDS011;30077;52.474;13.326;2023-04-25T18:11:11;27.02;;;10.65;;
44358;SDS011;30077;52.474;13.326;2023-04-25T18:16:12;14.02;;;5.57;;
44358;SDS011;30077;52.474;13.326;2023-04-25T18:21:12;5.53;;;1.77;;
44358;SDS011;30077;52.474;13.326;2023-04-25T18:26:13;16.67;;;8.57;;
44358;SDS011;30077;52.474;13.326;2023-04-25T18:31:14;7.50;;;2.05;;
44358;SDS011;30077;52.474;13.326;2023-04-25T18:36:16;8.45;;;2.95;;
44358;SDS011;30077;52.474;13.326;2023-04-25T18:41:17;9.73;;;3.00;;
44358;SDS011;30077;52.474;13.326;2023-04-25T18:46:17;7.88;;;2.55;;
44358;SDS011;30077;52.474;13.326;2023-04-25T18:51:22;7.15;;;1.98;;
44358;SDS011;30077;52.474;13.326;2023-04-25T18:56:28;8.18;;;2.35;;
44358;SDS011;30077;52.474;13.326;2023-04-25T19:01:29;9.18;;;2.22;;
44358;SDS011;30077;52.474;13.326;2023-04-25T19:06:30;8.82;;;3.00;;
44358;SDS011;30077;52.474;13.326;2023-04-25T19:11:31;5.45;;;2.80;;
44358;SDS011;30077;52.474;13.326;2023-04-25T19:16:33;6.60;;;2.28;;
44358;SDS011;30077;52.474;13.326;2023-04-25T19:21:37;10.90;;;2.40;;
44358;SDS011;30077;52.474;13.326;2023-04-25T19:26:41;6.82;;;2.53;;
44358;SDS011;30077;52.474;13.326;2023-04-25T19:31:42;7.35;;;2.35;;
44358;SDS011;30077;52.474;13.326;2023-04-25T19:36:44;9.13;;;2.10;;
44358;SDS011;30077;52.474;13.326;2023-04-25T19:41:45;21.40;;;11.35;;
44358;SDS011;30077;52.474;13.326;2023-04-25T19:46:46;4.07;;;1.90;;
44358;SDS011;30077;52.474;13.326;2023-04-25T19:51:48;10.13;;;2.30;;
44358;SDS011;30077;52.474;13.326;2023-04-25T19:56:48;7.85;;;2.25;;
44358;SDS011;30077;52.474;13.326;2023-04-25T20:01:49;14.48;;;8.18;;
44358;SDS011;30077;52.474;13.326;2023-04-25T20:06:50;7.85;;;2.75;;
44358;SDS011;30077;52.474;13.326;2023-04-25T20:11:51;6.38;;;2.30;;
44358;SDS011;30077;52.474;13.326;2023-04-25T20:16:52;8.57;;;2.13;;
44358;SDS011;30077;52.474;13.326;2023-04-25T20:21:53;7.57;;;2.65;;
44358;SDS011;30077;52.474;13.326;2023-04-25T20:26:54;7.88;;;2.70;;
44358;SDS011;30077;52.474;13.326;2023-04-25T20:31:57;13.80;;;2.00;;
44358;SDS011;30077;52.474;13.326;2023-04-25T20:36:59;8.90;;;2.65;;
44358;SDS011;30077;52.474;13.326;2023-04-25T20:47:02;13.90;;;4.13;;
44358;SDS011;30077;52.474;13.326;2023-04-25T20:52:04;24.48;;;11.75;;
44358;SDS011;30077;52.474;13.326;2023-04-25T20:57:04;6.55;;;2.60;;
44358;SDS011;30077;52.474;13.326;2023-04-25T21:02:05;7.00;;;2.42;;
44358;SDS011;30077;52.474;13.326;2023-04-25T21:07:09;6.03;;;2.10;;
44358;SDS011;30077;52.474;13.326;2023-04-25T21:12:14;12.85;;;2.40;;
44358;SDS011;30077;52.474;13.326;2023-04-25T21:17:15;6.25;;;1.85;;
44358;SDS011;30077;52.474;13.326;2023-04-25T21:22:15;6.30;;;1.98;;
44358;SDS011;30077;52.474;13.326;2023-04-25T21:27:16;10.70;;;2.65;;
44358;SDS011;30077;52.474;13.326;2023-04-25T21:32:17;9.02;;;2.42;;
44358;SDS011;30077;52.474;13.326;2023-04-25T21:37:20;5.88;;;2.03;;
44358;SDS011;30077;52.474;13.326;2023-04-25T21:42:21;16.45;;;4.60;;
44358;SDS011;30077;52.474;13.326;2023-04-25T21:47:22;6.50;;;2.63;;
44358;SDS011;30077;52.474;13.326;2023-04-25T21:52:23;8.55;;;2.25;;
44358;SDS011;30077;52.474;13.326;2023-04-25T21:57:24;11.18;;;2.15;;
44358;SDS011;30077;52.474;13.326;2023-04-25T22:02:25;5.75;;;1.90;;
44358;SDS011;30077;52.474;13.326;2023-04-25T22:07:26;9.00;;;2.50;;
44358;SDS011;30077;52.474;13.326;2023-04-25T22:12:27;8.88;;;2.10;;
44358;SDS011;30077;52.474;13.326;2023-04-25T22:17:27;9.93;;;2.50;;
44358;SDS011;30077;52.474;13.326;2023-04-25T22:22:28;10.15;;;2.45;;
44358;SDS011;30077;52.474;13.326;2023-04-25T22:27:29;11.70;;;3.78;;
44358;SDS011;30077;52.474;13.326;2023-04-25T22:32:30;4.82;;;2.03;;
44358;SDS011;30077;52.474;13.326;2023-04-25T22:37:30;10.32;;;2.22;;
44358;SDS011;30077;52.474;13.326;2023-04-25T22:42:41;8.15;;;2.28;;
44358;SDS011;30077;52.474;13.326;2023-04-25T22:47:43;9.65;;;2.50;;
44358;SDS011;30077;52.474;13.326;2023-04-25T22:52:44;14.70;;;3.80;;
44358;SDS011;30077;52.474;13.326;2023-04-25T22:57:46;8.30;;;1.83;;
44358;SDS011;30077;52.474;13.326;2023-04-25T23:02:47;8.57;;;2.28;;
44358;SDS011;30077;52.474;13.326;2023-04-25T23:07:48;15.40;;;2.47;;
44358;SDS011;30077;52.474;13.326;2023-04-25T23:12:49;6.78;;;2.33;;
44358;SDS011;30077;52.474;13.326;2023-04-25T23:17:50;9.68;;;1.90;;
44358;SDS011;30077;52.474;13.326;2023-04-25T23:22:51;10.60;;;2.85;;
44358;SDS011;30077;52.474;13.326;2023-04-25T23:27:52;9.40;;;2.35;;
44358;SDS011;30077;52.474;13.326;2023-04-25T23:32:52;8.93;;;2.25;;
44358;SDS011;30077;52.474;13.326;2023-04-25T23:37:53;9.07;;;2.60;;
44358;SDS011;30077;52.474;13.326;2023-04-25T23:42:54;13.82;;;2.83;;
44358;SDS011;30077;52.474;13.326;2023-04-25T23:47:55;7.18;;;2.22;;
44358;SDS011;30077;52.474;13.326;2023-04-25T23:52:56;8.63;;;2.22;;
44358;SDS011;30077;52.474;13.326;2023-04-25T23:57:57;12.52;;;2.20;;
